createdAt,value
2018-12-09T00:00:34.921Z,92317.33
2018-12-09T00:03:02.306Z,92301.48
2018-12-09T00:05:33.140Z,92299.39
2018-12-09T00:08:08.397Z,92292.08
2018-12-09T00:10:35.971Z,92287.80
2018-12-09T00:13:03.429Z,92287.18
2018-12-09T00:15:31.464Z,92281.75
2018-12-09T00:18:00.116Z,92270.53
2018-12-09T00:20:27.528Z,92264.94
2018-12-09T00:23:01.875Z,92280.91
2018-12-09T00:25:29.291Z,92276.20
2018-12-09T00:28:12.840Z,92294.45
2018-12-09T00:30:40.232Z,92302.38
2018-12-09T00:33:09.087Z,92288.64
2018-12-09T00:35:36.452Z,92304.11
2018-12-09T00:38:03.903Z,92303.67
2018-12-09T00:40:31.320Z,92334.30
2018-12-09T00:42:58.706Z,92315.19
2018-12-09T00:45:26.084Z,92303.80
2018-12-09T00:48:09.817Z,92313.27
2018-12-09T00:50:37.231Z,92301.80
2018-12-09T00:53:04.698Z,92296.58
2018-12-09T00:55:32.071Z,92289.52
2018-12-09T01:04:01.732Z,92313.73
2018-12-09T01:06:34.098Z,92297.16
2018-12-09T01:09:01.577Z,92307.36
2018-12-09T01:11:28.946Z,92313.95
2018-12-09T01:13:56.456Z,92300.34
2018-12-09T01:16:24.845Z,92294.60
2018-12-09T01:18:52.483Z,92304.34
2018-12-09T01:21:19.975Z,92281.73
2018-12-09T01:23:47.396Z,92265.20
2018-12-09T01:29:09.851Z,92249.19
2018-12-09T01:31:37.265Z,92258.91
2018-12-09T01:34:04.667Z,92259.28
2018-12-09T01:36:44.066Z,92236.05
2018-12-09T01:39:11.471Z,92240.27
2018-12-09T01:41:38.883Z,92273.19
2018-12-09T01:44:06.441Z,92260.60
2018-12-09T01:46:48.360Z,92259.75
2018-12-09T01:49:15.789Z,92253.48
2018-12-09T01:51:46.716Z,92278.27
2018-12-09T01:54:15.436Z,92262.13
2018-12-09T01:56:46.062Z,92300.91
2018-12-09T01:59:13.512Z,92250.16
2018-12-09T02:01:40.927Z,92244.50
2018-12-09T02:04:08.340Z,92243.84
2018-12-09T02:06:47.535Z,92246.09
2018-12-09T02:09:14.933Z,92242.44
2018-12-09T02:11:42.445Z,92254.65
2018-12-09T02:14:09.852Z,92253.99
2018-12-09T02:19:35.943Z,92252.56
2018-12-09T02:22:03.327Z,92248.09
2018-12-09T02:24:30.712Z,92240.66
2018-12-09T02:26:58.087Z,92226.80
2018-12-09T02:29:25.493Z,92223.44
2018-12-09T02:31:52.852Z,92213.77
2018-12-09T02:36:56.834Z,92223.93
2018-12-09T02:39:24.253Z,92213.52
2018-12-09T02:41:51.750Z,92210.42
2018-12-09T02:44:19.363Z,92209.27
2018-12-09T02:46:46.814Z,92220.89
2018-12-09T02:49:14.952Z,92207.45
2018-12-09T02:51:42.586Z,92234.98
2018-12-09T02:54:09.977Z,92232.63
2018-12-09T02:56:37.722Z,92235.50
2018-12-09T02:59:05.140Z,92211.67
2018-12-09T03:01:32.617Z,92219.95
2018-12-09T03:04:00.056Z,92213.43
2018-12-09T03:06:27.442Z,92211.34
2018-12-09T03:08:54.844Z,92214.14
2018-12-09T03:11:23.196Z,92226.28
2018-12-09T03:13:50.598Z,92220.98
2018-12-09T03:16:18.023Z,92213.36
2018-12-09T03:18:45.395Z,92219.67
2018-12-09T03:21:12.782Z,92212.82
2018-12-09T03:23:40.294Z,92190.91
2018-12-09T03:26:07.700Z,92183.48
2018-12-09T03:28:35.122Z,92175.56
2018-12-09T03:31:02.504Z,92195.40
2018-12-09T03:33:29.867Z,92180.30
2018-12-09T03:35:57.255Z,92181.44
2018-12-09T03:38:24.781Z,92200.16
2018-12-09T03:40:52.201Z,92228.32
2018-12-09T03:43:19.564Z,92235.69
2018-12-09T03:45:47.541Z,92196.33
2018-12-09T03:48:14.968Z,92179.72
2018-12-09T03:50:42.472Z,92203.81
2018-12-09T03:53:09.822Z,92180.60
2018-12-09T03:55:37.225Z,92189.88
2018-12-09T03:58:04.746Z,92195.50
2018-12-09T04:00:32.225Z,92195.54
2018-12-09T04:03:00.233Z,92220.45
2018-12-09T04:05:28.006Z,92239.50
2018-12-09T04:07:55.417Z,92232.98
2018-12-09T04:10:22.783Z,92240.24
2018-12-09T04:12:50.256Z,92232.69
2018-12-09T04:15:17.728Z,92234.13
2018-12-09T04:17:45.095Z,92224.84
2018-12-09T04:20:12.601Z,92233.73
2018-12-09T04:22:39.993Z,92231.47
2018-12-09T04:25:07.483Z,92225.23
2018-12-09T04:27:34.875Z,92223.36
2018-12-09T04:30:02.243Z,92211.68
2018-12-09T04:32:29.663Z,92227.14
2018-12-09T04:34:57.334Z,92242.97
2018-12-09T04:37:25.327Z,92259.48
2018-12-09T04:39:52.742Z,92232.81
2018-12-09T04:42:20.178Z,92238.30
2018-12-09T04:44:47.531Z,92245.77
2018-12-09T04:47:15.306Z,92247.67
2018-12-09T04:49:42.712Z,92240.20
2018-12-09T04:52:10.111Z,92261.16
2018-12-09T04:54:37.585Z,92246.22
2018-12-09T04:57:04.982Z,92252.71
2018-12-09T04:59:33.401Z,92260.44
2018-12-09T05:02:00.747Z,92272.64
2018-12-09T05:04:28.194Z,92285.72
2018-12-09T05:06:55.661Z,92275.30
2018-12-09T05:09:23.079Z,92294.06
2018-12-09T05:11:50.649Z,92295.03
2018-12-09T05:14:18.147Z,92295.14
2018-12-09T05:16:45.508Z,92302.00
2018-12-09T05:19:12.897Z,92291.13
2018-12-09T05:21:40.260Z,92286.50
2018-12-09T05:24:08.045Z,92289.52
2018-12-09T05:26:35.482Z,92279.52
2018-12-09T05:29:02.846Z,92299.95
2018-12-09T05:31:30.247Z,92303.34
2018-12-09T05:33:57.674Z,92290.11
2018-12-09T05:36:25.471Z,92299.44
2018-12-09T05:38:52.931Z,92286.81
2018-12-09T05:41:21.227Z,92298.69
2018-12-09T05:43:48.710Z,92276.45
2018-12-09T05:46:16.095Z,92272.13
2018-12-09T05:48:43.441Z,92269.11
2018-12-09T05:51:10.823Z,92266.06
2018-12-09T05:53:38.363Z,92269.56
2018-12-09T05:56:05.733Z,92278.34
2018-12-09T05:58:33.084Z,92268.19
2018-12-09T06:01:00.498Z,92260.61
2018-12-09T06:03:27.852Z,92263.59
2018-12-09T06:05:55.229Z,92259.34
2018-12-09T06:08:22.565Z,92262.25
2018-12-09T06:10:49.981Z,92261.88
2018-12-09T06:13:17.461Z,92263.14
2018-12-09T06:15:44.959Z,92273.30
2018-12-09T06:18:12.332Z,92284.23
2018-12-09T06:20:39.838Z,92287.94
2018-12-09T06:23:07.230Z,92298.84
2018-12-09T06:25:34.650Z,92291.34
2018-12-09T06:28:02.423Z,92278.84
2018-12-09T06:30:29.847Z,92279.10
2018-12-09T06:32:57.217Z,92281.68
2018-12-09T06:35:24.595Z,92282.13
2018-12-09T06:37:52.006Z,92279.92
2018-12-09T06:40:19.769Z,92302.65
2018-12-09T06:42:47.154Z,92280.48
2018-12-09T06:45:14.557Z,92297.88
2018-12-09T06:47:42.106Z,92291.22
2018-12-09T06:50:10.498Z,92279.86
2018-12-09T06:52:38.433Z,92330.63
2018-12-09T06:55:07.377Z,92287.87
2018-12-09T06:57:34.904Z,92300.16
2018-12-09T07:00:02.924Z,92299.34
2018-12-09T07:02:30.348Z,92305.76
2018-12-09T07:04:57.728Z,92312.38
2018-12-09T07:07:27.621Z,92307.03
2018-12-09T07:09:55.139Z,92315.36
2018-12-09T07:12:22.559Z,92318.38
2018-12-09T07:14:49.984Z,92307.95
2018-12-09T07:17:42.603Z,92321.20
2018-12-09T07:20:09.986Z,92330.67
2018-12-09T07:22:37.426Z,92346.86
2018-12-09T07:25:05.380Z,92354.86
2018-12-09T07:27:37.181Z,92334.55
2018-12-09T07:30:05.793Z,92328.09
2018-12-09T07:32:33.227Z,92371.08
2018-12-09T07:35:00.735Z,92381.34
2018-12-09T07:37:28.075Z,92398.93
2018-12-09T07:39:55.917Z,92408.08
2018-12-09T07:42:23.306Z,92421.11
2018-12-09T07:44:50.684Z,92440.72
2018-12-09T07:47:18.081Z,92445.01
2018-12-09T07:49:45.475Z,92449.13
2018-12-09T07:52:12.828Z,92450.39
2018-12-09T07:54:40.255Z,92457.22
2018-12-09T07:57:12.720Z,92455.75
2018-12-09T07:59:40.130Z,92455.22
2018-12-09T08:02:07.543Z,92471.14
2018-12-09T08:04:34.935Z,92461.02
2018-12-09T08:07:02.316Z,92464.69
2018-12-09T08:09:29.715Z,92461.74
2018-12-09T08:11:57.144Z,92458.76
2018-12-09T08:14:24.601Z,92474.05
2018-12-09T08:16:52.015Z,92467.34
2018-12-09T08:19:19.385Z,92472.97
2018-12-09T08:21:46.794Z,92482.20
2018-12-09T08:24:14.141Z,92491.91
2018-12-09T08:29:37.013Z,92475.47
2018-12-09T08:32:04.415Z,92488.55
2018-12-09T08:34:31.841Z,92495.62
2018-12-09T08:36:59.215Z,92511.02
2018-12-09T08:39:26.635Z,92517.88
2018-12-09T08:41:54.088Z,92505.05
2018-12-09T08:44:21.470Z,92513.49
2018-12-09T08:46:48.901Z,92507.31
2018-12-09T08:49:16.230Z,92522.85
2018-12-09T08:51:43.621Z,92522.95
2018-12-09T08:54:11.093Z,92531.61
2018-12-09T08:56:38.460Z,92528.18
2018-12-09T08:59:05.883Z,92530.75
2018-12-09T09:01:33.305Z,92530.81
2018-12-09T09:04:00.760Z,92517.68
2018-12-09T09:06:28.151Z,92525.64
2018-12-09T09:08:55.754Z,92527.39
2018-12-09T09:11:24.255Z,92529.36
2018-12-09T09:13:51.810Z,92532.27
2018-12-09T09:16:19.351Z,92519.65
2018-12-09T09:18:46.813Z,92513.59
2018-12-09T09:21:14.699Z,92504.95
2018-12-09T09:23:42.380Z,92509.53
2018-12-09T09:26:09.719Z,92516.50
2018-12-09T09:28:37.891Z,92505.33
2018-12-09T09:31:05.326Z,92504.31
2018-12-09T09:33:32.752Z,92513.00
2018-12-09T09:36:00.200Z,92514.10
2018-12-09T09:38:27.615Z,92519.80
2018-12-09T09:40:55.071Z,92525.06
2018-12-09T09:43:22.481Z,92530.72
2018-12-09T09:45:50.081Z,92521.45
2018-12-09T09:48:17.529Z,92516.37
2018-12-09T09:50:44.940Z,92514.38
2018-12-09T09:53:12.289Z,92505.94
2018-12-09T09:55:41.646Z,92512.95
2018-12-09T09:58:09.871Z,92506.59
2018-12-09T10:00:37.338Z,92503.71
2018-12-09T10:03:04.700Z,92518.63
2018-12-09T10:05:32.700Z,92506.86
2018-12-09T10:08:00.055Z,92506.13
2018-12-09T10:10:27.564Z,92503.52
2018-12-09T10:12:54.923Z,92494.91
2018-12-09T10:15:22.305Z,92491.07
2018-12-09T10:17:50.393Z,92483.93
2018-12-09T10:20:17.825Z,92486.91
2018-12-09T10:22:45.240Z,92483.41
2018-12-09T10:25:12.770Z,92484.30
2018-12-09T10:27:40.250Z,92478.23
2018-12-09T10:30:08.143Z,92472.29
2018-12-09T10:32:35.708Z,92468.07
2018-12-09T10:35:03.420Z,92476.52
2018-12-09T10:37:30.849Z,92475.75
2018-12-09T10:39:58.208Z,92472.39
2018-12-09T10:42:25.593Z,92466.24
2018-12-09T10:44:53.000Z,92465.41
2018-12-09T10:47:20.434Z,92467.55
2018-12-09T10:49:47.860Z,92455.91
2018-12-09T10:52:15.796Z,92486.46
2018-12-09T10:54:43.183Z,92476.88
2018-12-09T10:57:10.506Z,92484.69
2018-12-09T10:59:37.933Z,92466.99
2018-12-09T11:02:10.883Z,92465.81
2018-12-09T11:04:38.293Z,92461.95
2018-12-09T11:07:05.705Z,92463.76
2018-12-09T11:09:33.076Z,92470.16
2018-12-09T11:12:00.439Z,92468.83
2018-12-09T11:14:27.835Z,92465.66
2018-12-09T11:16:55.332Z,92465.66
2018-12-09T11:19:23.420Z,92463.66
2018-12-09T11:21:50.790Z,92472.09
2018-12-09T11:24:18.190Z,92463.56
2018-12-09T11:26:46.419Z,92470.70
2018-12-09T11:29:13.818Z,92471.56
2018-12-09T11:31:41.977Z,92467.75
2018-12-09T11:34:09.425Z,92468.92
2018-12-09T11:36:36.856Z,92474.73
2018-12-09T11:39:05.737Z,92464.99
2018-12-09T11:41:33.131Z,92468.64
2018-12-09T11:44:00.566Z,92465.63
2018-12-09T11:46:27.999Z,92464.64
2018-12-09T11:48:55.392Z,92460.73
2018-12-09T11:51:22.865Z,92463.20
2018-12-09T11:53:50.237Z,92460.22
2018-12-09T11:56:17.650Z,92459.81
2018-12-09T11:58:45.052Z,92454.64
2018-12-09T12:01:12.436Z,92456.38
2018-12-09T12:03:39.856Z,92461.91
2018-12-09T12:06:07.215Z,92459.27
2018-12-09T12:08:34.737Z,92464.28
2018-12-09T12:11:02.147Z,92460.75
2018-12-09T12:13:29.539Z,92460.72
2018-12-09T12:15:56.963Z,92463.16
2018-12-09T12:18:24.358Z,92471.13
2018-12-09T12:20:51.745Z,92453.25
2018-12-09T12:23:19.692Z,92450.16
2018-12-09T12:25:47.058Z,92466.36
2018-12-09T12:28:14.516Z,92458.33
2018-12-09T12:30:41.902Z,92465.16
2018-12-09T12:33:09.453Z,92456.37
2018-12-09T12:35:36.933Z,92463.78
2018-12-09T12:38:04.287Z,92464.51
2018-12-09T12:40:31.745Z,92464.75
2018-12-09T12:43:00.105Z,92446.42
2018-12-09T12:45:27.558Z,92446.33
2018-12-09T12:47:55.046Z,92448.63
2018-12-09T12:50:22.484Z,92449.99
2018-12-09T12:52:49.847Z,92451.33
2018-12-09T12:55:17.268Z,92458.73
2018-12-09T12:57:44.673Z,92456.30
2018-12-09T13:00:14.782Z,92455.20
2018-12-09T13:02:42.242Z,92445.05
2018-12-09T13:05:09.706Z,92441.71
2018-12-09T13:07:37.110Z,92442.57
2018-12-09T13:10:05.125Z,92439.97
2018-12-09T13:12:32.548Z,92436.22
2018-12-09T13:14:59.925Z,92439.17
2018-12-09T13:17:28.203Z,92436.32
2018-12-09T13:19:55.621Z,92436.77
2018-12-09T13:22:23.001Z,92432.62
2018-12-09T13:24:50.360Z,92426.65
2018-12-09T13:27:17.757Z,92433.58
2018-12-09T13:29:45.244Z,92438.09
2018-12-09T13:32:12.642Z,92435.71
2018-12-09T13:34:40.748Z,92449.33
2018-12-09T13:37:08.097Z,92443.94
2018-12-09T13:39:35.474Z,92450.72
2018-12-09T13:42:03.736Z,92447.80
2018-12-09T13:44:31.373Z,92459.28
2018-12-09T13:46:58.796Z,92462.23
2018-12-09T13:49:26.205Z,92466.14
2018-12-09T13:51:53.707Z,92464.87
2018-12-09T13:54:22.438Z,92466.45
2018-12-09T13:56:49.817Z,92477.14
2018-12-09T13:59:17.203Z,92476.28
2018-12-09T14:01:44.694Z,92468.64
2018-12-09T14:04:12.107Z,92474.92
2018-12-09T14:06:39.658Z,92484.12
2018-12-09T14:09:08.236Z,92478.09
2018-12-09T14:11:35.657Z,92479.36
2018-12-09T14:14:03.097Z,92492.91
2018-12-09T14:16:31.688Z,92505.62
2018-12-09T14:18:59.097Z,92492.55
2018-12-09T14:21:26.574Z,92490.78
2018-12-09T14:23:54.092Z,92504.73
2018-12-09T14:26:21.544Z,92503.44
2018-12-09T14:28:49.103Z,92503.56
2018-12-09T14:31:16.472Z,92505.72
2018-12-09T14:33:43.901Z,92506.95
2018-12-09T14:36:11.290Z,92506.45
2018-12-09T14:38:38.696Z,92511.71
2018-12-09T14:41:06.263Z,92510.53
2018-12-09T14:43:33.643Z,92520.69
2018-12-09T14:46:01.024Z,92517.41
2018-12-09T14:48:28.473Z,92511.48
2018-12-09T14:50:55.869Z,92512.75
2018-12-09T14:53:23.270Z,92516.50
2018-12-09T14:55:51.573Z,92526.30
2018-12-09T14:58:18.982Z,92506.97
2018-12-09T15:00:46.427Z,92520.13
2018-12-09T15:03:13.825Z,92514.00
2018-12-09T15:05:41.297Z,92513.30
2018-12-09T15:08:08.687Z,92513.39
2018-12-09T15:10:36.098Z,92502.04
2018-12-09T15:13:03.587Z,92508.02
2018-12-09T15:15:30.982Z,92501.77
2018-12-09T15:17:58.394Z,92512.74
2018-12-09T15:20:25.864Z,92519.14
2018-12-09T15:22:53.234Z,92507.52
2018-12-09T15:25:20.674Z,92517.67
2018-12-09T15:27:48.058Z,92519.82
2018-12-09T15:30:15.433Z,92525.98
2018-12-09T15:32:42.913Z,92522.62
2018-12-09T15:35:10.318Z,92539.69
2018-12-09T15:37:37.640Z,92533.58
2018-12-09T15:40:05.077Z,92535.67
2018-12-09T15:42:32.488Z,92545.38
2018-12-09T15:44:59.907Z,92546.20
2018-12-09T15:47:27.282Z,92538.16
2018-12-09T15:49:54.699Z,92540.95
2018-12-09T15:52:22.144Z,92542.78
2018-12-09T15:54:49.608Z,92549.45
2018-12-09T15:57:17.042Z,92552.55
2018-12-09T15:59:44.491Z,92560.07
2018-12-09T16:02:12.013Z,92554.61
2018-12-09T16:04:39.454Z,92565.32
2018-12-09T16:07:06.903Z,92567.50
2018-12-09T16:09:34.327Z,92571.52
2018-12-09T16:12:01.691Z,92563.49
2018-12-09T16:14:29.188Z,92579.13
2018-12-09T16:16:56.789Z,92571.48
2018-12-09T16:19:24.233Z,92607.13
2018-12-09T16:21:51.762Z,92596.97
2018-12-09T16:24:19.369Z,92601.78
2018-12-09T16:26:46.978Z,92616.92
2018-12-09T16:29:14.615Z,92634.16
2018-12-09T16:31:42.016Z,92643.92
2018-12-09T16:34:09.442Z,92638.84
2018-12-09T16:36:36.922Z,92637.95
2018-12-09T16:39:06.577Z,92645.55
2018-12-09T16:41:34.031Z,92640.85
2018-12-09T16:44:01.579Z,92654.13
2018-12-09T16:46:29.023Z,92663.34
2018-12-09T16:48:56.525Z,92658.70
2018-12-09T16:51:23.955Z,92661.33
2018-12-09T16:53:51.404Z,92668.50
2018-12-09T16:56:18.894Z,92671.15
2018-12-09T16:58:46.338Z,92689.77
2018-12-09T17:01:13.738Z,92682.16
2018-12-09T17:03:41.287Z,92701.63
2018-12-09T17:06:08.745Z,92699.06
2018-12-09T17:08:36.104Z,92719.36
2018-12-09T17:11:04.318Z,92701.18
2018-12-09T17:13:31.799Z,92719.08
2018-12-09T17:15:59.334Z,92722.80
2018-12-09T17:18:26.714Z,92743.11
2018-12-09T17:20:54.138Z,92738.39
2018-12-09T17:23:21.588Z,92732.71
2018-12-09T17:25:49.080Z,92747.08
2018-12-09T17:28:16.544Z,92751.60
2018-12-09T17:30:43.952Z,92754.20
2018-12-09T17:33:11.358Z,92769.31
2018-12-09T17:35:38.808Z,92767.49
2018-12-09T17:38:06.207Z,92771.27
2018-12-09T17:40:33.588Z,92766.22
2018-12-09T17:43:01.119Z,92772.05
2018-12-09T17:45:28.485Z,92767.85
2018-12-09T17:47:55.994Z,92777.95
2018-12-09T17:50:23.358Z,92788.10
2018-12-09T17:52:50.802Z,92779.66
2018-12-09T17:55:18.243Z,92783.77
2018-12-09T17:57:45.697Z,92802.40
2018-12-09T18:00:13.114Z,92785.31
2018-12-09T18:02:40.537Z,92785.81
2018-12-09T18:05:07.948Z,92792.48
2018-12-09T18:07:35.393Z,92798.89
2018-12-09T18:10:02.883Z,92785.30
2018-12-09T18:12:30.392Z,92790.03
2018-12-09T18:14:57.792Z,92811.23
2018-12-09T18:17:25.207Z,92810.84
2018-12-09T18:19:53.352Z,92821.93
2018-12-09T18:22:20.760Z,92835.40
2018-12-09T18:24:48.178Z,92840.03
2018-12-09T18:27:15.695Z,92837.44
2018-12-09T18:29:43.257Z,92844.53
2018-12-09T18:32:10.754Z,92841.91
2018-12-09T18:34:38.160Z,92843.69
2018-12-09T18:37:05.592Z,92849.53
2018-12-09T18:39:33.223Z,92875.42
2018-12-09T18:42:00.663Z,92867.28
2018-12-09T18:44:28.070Z,92862.67
2018-12-09T18:46:55.493Z,92872.30
2018-12-09T18:49:22.920Z,92872.28
2018-12-09T18:51:50.376Z,92874.69
2018-12-09T18:54:17.749Z,92874.81
2018-12-09T18:56:45.141Z,92876.48
2018-12-09T18:59:12.571Z,92881.91
2018-12-09T19:01:40.054Z,92892.02
2018-12-09T19:04:07.514Z,92903.00
2018-12-09T19:06:34.928Z,92913.22
2018-12-09T19:09:04.080Z,92917.05
2018-12-09T19:11:31.519Z,92930.68
2018-12-09T19:13:58.908Z,92924.74
2018-12-09T19:16:26.341Z,92931.97
2018-12-09T19:18:53.828Z,92937.93
2018-12-09T19:21:21.224Z,92941.02
2018-12-09T19:23:48.896Z,92945.23
2018-12-09T19:26:17.160Z,92953.19
2018-12-09T19:28:44.601Z,92962.49
2018-12-09T19:31:12.008Z,92967.33
2018-12-09T19:33:39.455Z,92972.80
2018-12-09T19:36:07.462Z,92971.97
2018-12-09T19:38:40.171Z,92971.14
2018-12-09T19:41:04.588Z,92977.06
2018-12-09T19:43:32.419Z,92972.80
2018-12-09T19:46:00.449Z,92987.98
2018-12-09T19:48:27.951Z,93007.83
2018-12-09T19:50:56.350Z,93011.25
2018-12-09T19:53:24.366Z,92998.13
2018-12-09T19:55:51.861Z,93016.33
2018-12-09T19:58:19.454Z,93011.27
2018-12-09T20:00:47.756Z,93028.58
2018-12-09T20:03:15.999Z,93032.84
2018-12-09T20:05:43.436Z,93027.77
2018-12-09T20:08:10.945Z,93037.48
2018-12-09T20:10:38.518Z,93034.05
2018-12-09T20:13:06.030Z,93048.06
2018-12-09T20:15:33.799Z,93033.73
2018-12-09T20:18:01.361Z,93044.41
2018-12-09T20:20:28.753Z,93024.91
2018-12-09T20:22:56.356Z,93042.31
2018-12-09T20:25:23.836Z,93043.14
2018-12-09T20:27:51.286Z,93050.74
2018-12-09T20:30:18.784Z,93041.92
2018-12-09T20:32:46.149Z,93058.52
2018-12-09T20:35:13.535Z,93059.78
2018-12-09T20:37:41.025Z,93064.86
2018-12-09T20:40:10.740Z,93067.91
2018-12-09T20:42:38.238Z,93070.94
2018-12-09T20:45:07.643Z,93074.31
2018-12-09T20:47:35.074Z,93070.17
2018-12-09T20:50:02.785Z,93073.11
2018-12-09T20:52:30.639Z,93077.78
2018-12-09T20:54:58.070Z,93092.66
2018-12-09T20:57:25.495Z,93089.72
2018-12-09T20:59:53.154Z,93095.63
2018-12-09T21:02:20.878Z,93091.06
2018-12-09T21:04:48.598Z,93098.23
2018-12-09T21:07:16.124Z,93090.24
2018-12-09T21:09:43.489Z,93103.86
2018-12-09T21:12:11.240Z,93104.31
2018-12-09T21:14:39.023Z,93114.96
2018-12-09T21:17:06.862Z,93119.55
2018-12-09T21:19:34.253Z,93129.30
2018-12-09T21:22:01.666Z,93132.16
2018-12-09T21:24:29.417Z,93129.62
2018-12-09T21:26:56.981Z,93135.22
2018-12-09T21:29:24.568Z,93138.96
2018-12-09T21:31:52.090Z,93141.50
2018-12-09T21:34:19.941Z,93146.55
2018-12-09T21:36:47.793Z,93155.17
2018-12-09T21:39:15.735Z,93154.29
2018-12-09T21:41:43.147Z,93164.87
2018-12-09T21:44:10.563Z,93156.95
2018-12-09T21:46:38.466Z,93157.72
2018-12-09T21:49:06.620Z,93164.12
2018-12-09T21:51:34.345Z,93169.20
2018-12-09T21:54:02.158Z,93170.08
2018-12-09T21:56:29.571Z,93170.41
2018-12-09T21:58:56.971Z,93184.03
2018-12-09T22:01:25.038Z,93177.80
2018-12-09T22:03:53.169Z,93176.97
2018-12-09T22:06:21.010Z,93191.31
2018-12-09T22:08:48.414Z,93199.73
2018-12-09T22:11:16.573Z,93213.70
2018-12-09T22:13:44.794Z,93209.61
2018-12-09T22:16:13.736Z,93215.52
2018-12-09T22:18:41.351Z,93223.17
2018-12-09T22:21:09.090Z,93229.95
2018-12-09T22:23:36.686Z,93236.74
2018-12-09T22:26:04.555Z,93229.97
2018-12-09T22:28:32.172Z,93230.07
2018-12-09T22:30:59.786Z,93236.80
2018-12-09T22:33:27.495Z,93250.70
2018-12-09T22:35:54.926Z,93246.12
2018-12-09T22:38:22.360Z,93256.70
2018-12-09T22:40:50.111Z,93260.50
2018-12-09T22:43:17.494Z,93262.66
2018-12-09T22:45:44.869Z,93285.08
2018-12-09T22:48:12.244Z,93284.69
2018-12-09T22:50:40.150Z,93286.87
2018-12-09T22:53:07.530Z,93297.38
2018-12-09T22:55:34.930Z,93290.20
2018-12-09T22:58:02.269Z,93297.42
2018-12-09T23:00:29.840Z,93299.17
2018-12-09T23:03:03.104Z,93311.80
2018-12-09T23:05:30.477Z,93294.89
2018-12-09T23:07:57.910Z,93313.08
2018-12-09T23:10:25.300Z,93319.41
2018-12-09T23:12:52.697Z,93319.02
2018-12-09T23:15:20.094Z,93320.72
2018-12-09T23:17:47.474Z,93330.48
2018-12-09T23:20:14.867Z,93332.63
2018-12-09T23:22:42.297Z,93335.06
2018-12-09T23:25:09.759Z,93333.75
2018-12-09T23:27:37.120Z,93339.27
2018-12-09T23:30:06.404Z,93346.87
2018-12-09T23:32:33.745Z,93344.38
2018-12-09T23:35:01.146Z,93362.09
2018-12-09T23:37:28.527Z,93357.94
2018-12-09T23:39:55.900Z,93360.83
2018-12-09T23:42:23.308Z,93368.44
2018-12-09T23:44:50.713Z,93367.91
2018-12-09T23:47:18.149Z,93373.50
2018-12-09T23:49:45.518Z,93379.36
2018-12-09T23:52:12.854Z,93379.89
2018-12-09T23:54:40.274Z,93389.59
2018-12-09T23:57:07.680Z,93398.98
2018-12-09T23:59:35.077Z,93399.73
